Terminal Aerodrome Forecast
Issued by NWS

Home | Current Version | Previous Version | Text Only | Print | Product List | Glossary On
Versions: 1 2 3 4 5 6 7 8 9 10 11 12 13 14 15 16 17 18 19 20
023
FTUS42 KTBW 060911 AAA
TAFPIE
TAF AMD
KPIE 060911Z 0609/0706 18016G23KT P6SM VCSH SCT010 OVC030
      TEMPO 0609/0612 BKN010
     FM061200 20016G26KT 6SM SHRA VCTS SCT015CB OVC025
      TEMPO 0612/0616 VRB20G30KT 3SM TSRA BKN015CB
     FM061600 23017G27KT 6SM SHRA VCTS SCT015CB OVC025
     FM062000 25015G24KT P6SM SHRA SCT015 OVC025
     FM070100 27006KT P6SM SCT015 BKN030 OVC050=

USA.gov is the U.S. government's official web portal to all federal, state and local government web resources and services.